sensor_id;sensor_type;location;lat;lon;timestamp;temperature;humidity
10788;DHT22;5446;50.826;4.380;2023-06-22T00:01:23;21.30;99.90
10788;DHT22;5446;50.826;4.380;2023-06-22T00:03:49;21.30;99.90
10788;DHT22;5446;50.826;4.380;2023-06-22T00:06:15;21.30;99.90
10788;DHT22;5446;50.826;4.380;2023-06-22T00:08:41;21.30;99.90
10788;DHT22;5446;50.826;4.380;2023-06-22T00:11:06;21.30;99.90
10788;DHT22;5446;50.826;4.380;2023-06-22T00:13:32;21.30;99.90
10788;DHT22;5446;50.826;4.380;2023-06-22T00:15:58;21.30;99.90
10788;DHT22;5446;50.826;4.380;2023-06-22T00:18:23;21.20;99.90
10788;DHT22;5446;50.826;4.380;2023-06-22T00:20:54;21.20;99.90
10788;DHT22;5446;50.826;4.380;2023-06-22T00:23:23;21.20;99.90
10788;DHT22;5446;50.826;4.380;2023-06-22T00:25:49;21.20;99.90
10788;DHT22;5446;50.826;4.380;2023-06-22T00:28:15;21.20;99.90
10788;DHT22;5446;50.826;4.380;2023-06-22T00:30:41;21.20;99.90
10788;DHT22;5446;50.826;4.380;2023-06-22T00:33:06;21.20;99.90
10788;DHT22;5446;50.826;4.380;2023-06-22T00:35:33;21.10;99.90
10788;DHT22;5446;50.826;4.380;2023-06-22T00:38:00;21.10;99.90
10788;DHT22;5446;50.826;4.380;2023-06-22T00:40:31;21.10;99.90
10788;DHT22;5446;50.826;4.380;2023-06-22T00:42:57;21.00;99.90
10788;DHT22;5446;50.826;4.380;2023-06-22T00:45:24;21.00;99.90
10788;DHT22;5446;50.826;4.380;2023-06-22T00:47:55;21.00;99.90
10788;DHT22;5446;50.826;4.380;2023-06-22T00:50:23;21.00;99.90
10788;DHT22;5446;50.826;4.380;2023-06-22T00:52:57;21.00;99.90
10788;DHT22;5446;50.826;4.380;2023-06-22T00:55:25;21.10;99.90
10788;DHT22;5446;50.826;4.380;2023-06-22T00:57:54;21.10;99.90
10788;DHT22;5446;50.826;4.380;2023-06-22T01:00:25;21.00;99.90
10788;DHT22;5446;50.826;4.380;2023-06-22T01:02:52;21.00;99.90
10788;DHT22;5446;50.826;4.380;2023-06-22T01:05:19;21.10;99.90
10788;DHT22;5446;50.826;4.380;2023-06-22T01:10:55;21.10;99.90
10788;DHT22;5446;50.826;4.380;2023-06-22T01:13:45;21.10;99.90
10788;DHT22;5446;50.826;4.380;2023-06-22T01:19:43;21.00;99.90
10788;DHT22;5446;50.826;4.380;2023-06-22T01:22:11;21.00;99.90
10788;DHT22;5446;50.826;4.380;2023-06-22T01:27:59;20.80;99.90
10788;DHT22;5446;50.826;4.380;2023-06-22T01:30:30;20.80;99.90
10788;DHT22;5446;50.826;4.380;2023-06-22T01:32:57;20.80;99.90
10788;DHT22;5446;50.826;4.380;2023-06-22T01:35:24;20.80;99.90
10788;DHT22;5446;50.826;4.380;2023-06-22T01:37:50;20.80;99.90
10788;DHT22;5446;50.826;4.380;2023-06-22T01:40:17;20.80;99.90
10788;DHT22;5446;50.826;4.380;2023-06-22T01:42:44;20.80;99.90
10788;DHT22;5446;50.826;4.380;2023-06-22T01:45:11;20.70;99.90
10788;DHT22;5446;50.826;4.380;2023-06-22T01:47:39;20.70;99.90
10788;DHT22;5446;50.826;4.380;2023-06-22T01:50:05;20.70;99.90
10788;DHT22;5446;50.826;4.380;2023-06-22T01:52:31;20.70;99.90
10788;DHT22;5446;50.826;4.380;2023-06-22T01:54:59;20.70;99.90
10788;DHT22;5446;50.826;4.380;2023-06-22T01:57:26;20.70;99.90
10788;DHT22;5446;50.826;4.380;2023-06-22T02:03:11;20.60;99.90
10788;DHT22;5446;50.826;4.380;2023-06-22T02:05:56;20.60;99.90
10788;DHT22;5446;50.826;4.380;2023-06-22T02:08:32;20.60;99.90
10788;DHT22;5446;50.826;4.380;2023-06-22T02:11:00;20.50;99.90
10788;DHT22;5446;50.826;4.380;2023-06-22T02:13:26;20.50;99.90
10788;DHT22;5446;50.826;4.380;2023-06-22T02:15:53;20.50;99.90
10788;DHT22;5446;50.826;4.380;2023-06-22T02:18:19;20.50;99.90
10788;DHT22;5446;50.826;4.380;2023-06-22T02:20:46;20.40;99.90
10788;DHT22;5446;50.826;4.380;2023-06-22T02:23:11;20.40;99.90
10788;DHT22;5446;50.826;4.380;2023-06-22T02:25:37;20.40;99.90
10788;DHT22;5446;50.826;4.380;2023-06-22T02:28:04;20.30;99.90
10788;DHT22;5446;50.826;4.380;2023-06-22T02:30:30;20.30;99.90
10788;DHT22;5446;50.826;4.380;2023-06-22T02:32:55;20.20;99.90
10788;DHT22;5446;50.826;4.380;2023-06-22T02:35:28;20.20;99.90
10788;DHT22;5446;50.826;4.380;2023-06-22T02:38:00;20.20;99.90
10788;DHT22;5446;50.826;4.380;2023-06-22T02:40:27;20.10;99.90
10788;DHT22;5446;50.826;4.380;2023-06-22T02:42:53;20.10;99.90
10788;DHT22;5446;50.826;4.380;2023-06-22T02:45:19;20.10;99.90
10788;DHT22;5446;50.826;4.380;2023-06-22T02:47:45;20.00;99.90
10788;DHT22;5446;50.826;4.380;2023-06-22T02:50:10;20.00;99.90
10788;DHT22;5446;50.826;4.380;2023-06-22T02:52:36;20.00;99.90
10788;DHT22;5446;50.826;4.380;2023-06-22T02:55:02;19.90;99.90
10788;DHT22;5446;50.826;4.380;2023-06-22T02:57:28;19.90;99.90
10788;DHT22;5446;50.826;4.380;2023-06-22T02:59:55;19.90;99.90
10788;DHT22;5446;50.826;4.380;2023-06-22T03:02:20;19.90;99.90
10788;DHT22;5446;50.826;4.380;2023-06-22T03:04:47;19.80;99.90
10788;DHT22;5446;50.826;4.380;2023-06-22T03:07:17;19.70;99.90
10788;DHT22;5446;50.826;4.380;2023-06-22T03:09:43;19.70;99.90
10788;DHT22;5446;50.826;4.380;2023-06-22T03:12:09;19.70;99.90
10788;DHT22;5446;50.826;4.380;2023-06-22T03:14:34;19.60;99.90
10788;DHT22;5446;50.826;4.380;2023-06-22T03:17:00;19.60;99.90
10788;DHT22;5446;50.826;4.380;2023-06-22T03:19:29;19.60;99.90
10788;DHT22;5446;50.826;4.380;2023-06-22T03:21:57;19.60;99.90
10788;DHT22;5446;50.826;4.380;2023-06-22T03:24:23;19.60;99.90
10788;DHT22;5446;50.826;4.380;2023-06-22T03:26:48;19.60;99.90
10788;DHT22;5446;50.826;4.380;2023-06-22T03:29:14;19.60;99.90
10788;DHT22;5446;50.826;4.380;2023-06-22T03:31:41;19.60;99.90
10788;DHT22;5446;50.826;4.380;2023-06-22T03:34:06;19.60;99.90
10788;DHT22;5446;50.826;4.380;2023-06-22T03:36:32;19.60;99.90
10788;DHT22;5446;50.826;4.380;2023-06-22T03:38:58;19.60;99.90
10788;DHT22;5446;50.826;4.380;2023-06-22T03:41:24;19.70;99.90
10788;DHT22;5446;50.826;4.380;2023-06-22T03:43:50;19.70;99.90
10788;DHT22;5446;50.826;4.380;2023-06-22T03:46:16;19.70;99.90
10788;DHT22;5446;50.826;4.380;2023-06-22T03:48:42;19.70;99.90
10788;DHT22;5446;50.826;4.380;2023-06-22T03:51:08;19.80;99.90
10788;DHT22;5446;50.826;4.380;2023-06-22T03:53:33;19.80;99.90
10788;DHT22;5446;50.826;4.380;2023-06-22T03:55:59;19.80;99.90
10788;DHT22;5446;50.826;4.380;2023-06-22T03:58:25;19.80;99.90
10788;DHT22;5446;50.826;4.380;2023-06-22T04:00:52;19.80;99.90
10788;DHT22;5446;50.826;4.380;2023-06-22T04:03:18;19.80;99.90
10788;DHT22;5446;50.826;4.380;2023-06-22T04:05:44;19.70;99.90
10788;DHT22;5446;50.826;4.380;2023-06-22T04:08:11;19.70;99.90
10788;DHT22;5446;50.826;4.380;2023-06-22T04:10:37;19.70;99.90
10788;DHT22;5446;50.826;4.380;2023-06-22T04:13:03;19.70;99.90
10788;DHT22;5446;50.826;4.380;2023-06-22T04:15:29;19.70;99.90
10788;DHT22;5446;50.826;4.380;2023-06-22T04:17:55;19.80;99.90
10788;DHT22;5446;50.826;4.380;2023-06-22T04:20:21;19.90;99.90
10788;DHT22;5446;50.826;4.380;2023-06-22T04:22:47;19.90;99.90
10788;DHT22;5446;50.826;4.380;2023-06-22T04:25:13;19.90;99.90
10788;DHT22;5446;50.826;4.380;2023-06-22T04:27:39;20.00;99.90
10788;DHT22;5446;50.826;4.380;2023-06-22T04:30:06;20.00;99.90
10788;DHT22;5446;50.826;4.380;2023-06-22T04:32:35;20.00;99.90
10788;DHT22;5446;50.826;4.380;2023-06-22T04:35:05;20.00;99.90
10788;DHT22;5446;50.826;4.380;2023-06-22T04:37:32;20.00;99.90
10788;DHT22;5446;50.826;4.380;2023-06-22T04:39:58;20.00;99.90
10788;DHT22;5446;50.826;4.380;2023-06-22T04:42:27;20.00;99.90
10788;DHT22;5446;50.826;4.380;2023-06-22T04:44:53;20.10;99.90
10788;DHT22;5446;50.826;4.380;2023-06-22T04:47:19;20.00;99.90
10788;DHT22;5446;50.826;4.380;2023-06-22T04:49:45;20.10;99.90
10788;DHT22;5446;50.826;4.380;2023-06-22T04:52:12;20.10;99.90
10788;DHT22;5446;50.826;4.380;2023-06-22T04:54:39;20.10;99.90
10788;DHT22;5446;50.826;4.380;2023-06-22T04:57:07;20.10;99.90
10788;DHT22;5446;50.826;4.380;2023-06-22T04:59:37;20.10;99.90
10788;DHT22;5446;50.826;4.380;2023-06-22T05:02:04;20.10;99.90
10788;DHT22;5446;50.826;4.380;2023-06-22T05:04:31;20.10;99.90
10788;DHT22;5446;50.826;4.380;2023-06-22T05:06:58;20.10;99.90
10788;DHT22;5446;50.826;4.380;2023-06-22T05:09:25;20.10;99.90
10788;DHT22;5446;50.826;4.380;2023-06-22T05:11:51;20.00;99.90
10788;DHT22;5446;50.826;4.380;2023-06-22T05:14:18;19.90;99.90
10788;DHT22;5446;50.826;4.380;2023-06-22T05:16:44;19.80;99.90
10788;DHT22;5446;50.826;4.380;2023-06-22T05:19:11;19.70;99.90
10788;DHT22;5446;50.826;4.380;2023-06-22T05:21:37;19.60;99.90
10788;DHT22;5446;50.826;4.380;2023-06-22T05:24:03;19.50;99.90
10788;DHT22;5446;50.826;4.380;2023-06-22T05:26:31;19.40;99.90
10788;DHT22;5446;50.826;4.380;2023-06-22T05:28:57;19.40;99.90
10788;DHT22;5446;50.826;4.380;2023-06-22T05:31:23;19.40;99.90
10788;DHT22;5446;50.826;4.380;2023-06-22T05:33:51;19.40;99.90
10788;DHT22;5446;50.826;4.380;2023-06-22T05:36:17;19.30;99.90
10788;DHT22;5446;50.826;4.380;2023-06-22T05:38:45;19.20;99.90
10788;DHT22;5446;50.826;4.380;2023-06-22T05:41:11;19.30;99.90
10788;DHT22;5446;50.826;4.380;2023-06-22T05:43:37;19.40;99.90
10788;DHT22;5446;50.826;4.380;2023-06-22T05:46:03;19.30;99.90
10788;DHT22;5446;50.826;4.380;2023-06-22T05:48:29;19.30;99.90
10788;DHT22;5446;50.826;4.380;2023-06-22T05:50:55;19.30;99.90
10788;DHT22;5446;50.826;4.380;2023-06-22T05:53:21;19.40;99.90
10788;DHT22;5446;50.826;4.380;2023-06-22T05:55:46;19.40;99.90
10788;DHT22;5446;50.826;4.380;2023-06-22T05:58:12;19.50;99.90
10788;DHT22;5446;50.826;4.380;2023-06-22T06:00:41;19.50;99.90
10788;DHT22;5446;50.826;4.380;2023-06-22T06:03:07;19.50;99.90
10788;DHT22;5446;50.826;4.380;2023-06-22T06:05:34;19.40;99.90
10788;DHT22;5446;50.826;4.380;2023-06-22T06:08:01;19.30;99.90
10788;DHT22;5446;50.826;4.380;2023-06-22T06:10:27;19.20;99.90
10788;DHT22;5446;50.826;4.380;2023-06-22T06:12:55;19.30;99.90
10788;DHT22;5446;50.826;4.380;2023-06-22T06:15:21;19.30;99.90
10788;DHT22;5446;50.826;4.380;2023-06-22T06:17:47;19.30;99.90
10788;DHT22;5446;50.826;4.380;2023-06-22T06:20:13;19.40;99.90
10788;DHT22;5446;50.826;4.380;2023-06-22T06:22:39;19.40;99.90
10788;DHT22;5446;50.826;4.380;2023-06-22T06:25:05;19.50;99.90
10788;DHT22;5446;50.826;4.380;2023-06-22T06:27:31;19.40;99.90
10788;DHT22;5446;50.826;4.380;2023-06-22T06:29:57;19.50;99.90
10788;DHT22;5446;50.826;4.380;2023-06-22T06:32:22;19.50;99.90
10788;DHT22;5446;50.826;4.380;2023-06-22T06:34:48;19.50;99.90
10788;DHT22;5446;50.826;4.380;2023-06-22T06:37:14;19.50;99.90
10788;DHT22;5446;50.826;4.380;2023-06-22T06:39:41;19.70;99.90
10788;DHT22;5446;50.826;4.380;2023-06-22T06:42:06;19.70;99.90
10788;DHT22;5446;50.826;4.380;2023-06-22T06:44:32;19.70;99.90
10788;DHT22;5446;50.826;4.380;2023-06-22T06:46:58;19.70;99.90
10788;DHT22;5446;50.826;4.380;2023-06-22T06:49:23;19.80;99.90
10788;DHT22;5446;50.826;4.380;2023-06-22T06:51:50;19.80;99.90
10788;DHT22;5446;50.826;4.380;2023-06-22T06:54:15;19.80;99.90
10788;DHT22;5446;50.826;4.380;2023-06-22T06:56:41;19.90;99.90
10788;DHT22;5446;50.826;4.380;2023-06-22T06:59:10;19.90;99.90
10788;DHT22;5446;50.826;4.380;2023-06-22T07:01:35;19.90;99.90
10788;DHT22;5446;50.826;4.380;2023-06-22T07:04:01;19.90;99.90
10788;DHT22;5446;50.826;4.380;2023-06-22T07:06:27;19.90;99.90
10788;DHT22;5446;50.826;4.380;2023-06-22T07:08:55;20.00;99.90
10788;DHT22;5446;50.826;4.380;2023-06-22T07:11:21;20.00;99.90
10788;DHT22;5446;50.826;4.380;2023-06-22T07:13:47;20.00;99.90
10788;DHT22;5446;50.826;4.380;2023-06-22T07:16:12;20.00;99.90
10788;DHT22;5446;50.826;4.380;2023-06-22T07:18:39;20.10;99.90
10788;DHT22;5446;50.826;4.380;2023-06-22T07:21:05;20.10;99.90
10788;DHT22;5446;50.826;4.380;2023-06-22T07:23:32;20.20;99.90
10788;DHT22;5446;50.826;4.380;2023-06-22T07:25:58;20.30;99.90
10788;DHT22;5446;50.826;4.380;2023-06-22T07:28:27;20.40;99.90
10788;DHT22;5446;50.826;4.380;2023-06-22T07:30:54;20.60;99.90
10788;DHT22;5446;50.826;4.380;2023-06-22T07:33:20;20.60;99.90
10788;DHT22;5446;50.826;4.380;2023-06-22T07:35:46;20.60;99.90
10788;DHT22;5446;50.826;4.380;2023-06-22T07:38:13;20.60;99.90
10788;DHT22;5446;50.826;4.380;2023-06-22T07:40:40;20.60;99.90
10788;DHT22;5446;50.826;4.380;2023-06-22T07:43:07;20.60;99.90
10788;DHT22;5446;50.826;4.380;2023-06-22T07:45:38;20.70;99.90
10788;DHT22;5446;50.826;4.380;2023-06-22T07:48:06;20.60;99.90
10788;DHT22;5446;50.826;4.380;2023-06-22T07:50:32;20.60;99.90
10788;DHT22;5446;50.826;4.380;2023-06-22T07:52:58;20.60;99.90
10788;DHT22;5446;50.826;4.380;2023-06-22T07:55:24;20.60;99.90
10788;DHT22;5446;50.826;4.380;2023-06-22T07:57:50;20.60;99.90
10788;DHT22;5446;50.826;4.380;2023-06-22T08:00:17;20.70;99.90
10788;DHT22;5446;50.826;4.380;2023-06-22T08:02:45;20.70;99.90
10788;DHT22;5446;50.826;4.380;2023-06-22T08:05:11;20.70;99.90
10788;DHT22;5446;50.826;4.380;2023-06-22T08:07:38;20.70;99.90
10788;DHT22;5446;50.826;4.380;2023-06-22T08:10:10;20.70;99.90
10788;DHT22;5446;50.826;4.380;2023-06-22T08:12:36;20.70;99.90
10788;DHT22;5446;50.826;4.380;2023-06-22T08:15:02;20.70;99.90
10788;DHT22;5446;50.826;4.380;2023-06-22T08:17:28;20.70;99.90
10788;DHT22;5446;50.826;4.380;2023-06-22T08:19:54;20.80;99.90
10788;DHT22;5446;50.826;4.380;2023-06-22T08:22:19;20.90;99.90
10788;DHT22;5446;50.826;4.380;2023-06-22T08:24:45;20.80;99.90
10788;DHT22;5446;50.826;4.380;2023-06-22T08:27:11;20.70;99.90
10788;DHT22;5446;50.826;4.380;2023-06-22T08:29:41;20.60;99.90
10788;DHT22;5446;50.826;4.380;2023-06-22T08:32:11;20.60;99.90
10788;DHT22;5446;50.826;4.380;2023-06-22T08:34:37;20.60;99.90
10788;DHT22;5446;50.826;4.380;2023-06-22T08:37:08;20.60;99.90
10788;DHT22;5446;50.826;4.380;2023-06-22T08:39:34;20.60;99.90
10788;DHT22;5446;50.826;4.380;2023-06-22T08:42:00;20.60;99.90
10788;DHT22;5446;50.826;4.380;2023-06-22T08:44:26;20.60;99.90
10788;DHT22;5446;50.826;4.380;2023-06-22T08:46:51;20.50;99.90
10788;DHT22;5446;50.826;4.380;2023-06-22T08:49:17;20.50;99.90
10788;DHT22;5446;50.826;4.380;2023-06-22T08:51:43;20.50;99.90
10788;DHT22;5446;50.826;4.380;2023-06-22T08:54:11;20.60;99.90
10788;DHT22;5446;50.826;4.380;2023-06-22T08:56:36;20.50;99.90
10788;DHT22;5446;50.826;4.380;2023-06-22T08:59:02;20.50;99.90
10788;DHT22;5446;50.826;4.380;2023-06-22T09:01:28;20.50;99.90
10788;DHT22;5446;50.826;4.380;2023-06-22T09:03:53;20.50;99.90
10788;DHT22;5446;50.826;4.380;2023-06-22T09:06:23;20.50;99.90
10788;DHT22;5446;50.826;4.380;2023-06-22T09:08:50;20.50;99.90
10788;DHT22;5446;50.826;4.380;2023-06-22T09:11:16;20.50;99.90
10788;DHT22;5446;50.826;4.380;2023-06-22T09:13:42;20.40;99.90
10788;DHT22;5446;50.826;4.380;2023-06-22T09:16:08;20.40;99.90
10788;DHT22;5446;50.826;4.380;2023-06-22T09:18:36;20.50;99.90
10788;DHT22;5446;50.826;4.380;2023-06-22T09:21:02;20.50;99.90
10788;DHT22;5446;50.826;4.380;2023-06-22T09:23:28;20.50;99.90
10788;DHT22;5446;50.826;4.380;2023-06-22T09:25:54;20.50;99.90
10788;DHT22;5446;50.826;4.380;2023-06-22T09:28:20;20.50;99.90
10788;DHT22;5446;50.826;4.380;2023-06-22T09:30:45;20.30;99.90
10788;DHT22;5446;50.826;4.380;2023-06-22T09:33:11;20.30;99.90
10788;DHT22;5446;50.826;4.380;2023-06-22T09:35:37;20.20;99.90
10788;DHT22;5446;50.826;4.380;2023-06-22T09:38:02;20.20;99.90
10788;DHT22;5446;50.826;4.380;2023-06-22T09:40:28;20.10;99.90
10788;DHT22;5446;50.826;4.380;2023-06-22T09:42:54;19.90;99.90
10788;DHT22;5446;50.826;4.380;2023-06-22T09:45:20;19.60;99.90
10788;DHT22;5446;50.826;4.380;2023-06-22T09:47:45;19.50;99.90
10788;DHT22;5446;50.826;4.380;2023-06-22T09:50:12;19.40;99.90
10788;DHT22;5446;50.826;4.380;2023-06-22T09:52:37;19.40;99.90
10788;DHT22;5446;50.826;4.380;2023-06-22T09:55:03;19.20;99.90
10788;DHT22;5446;50.826;4.380;2023-06-22T09:57:30;19.00;99.90
10788;DHT22;5446;50.826;4.380;2023-06-22T09:59:55;18.80;99.90
10788;DHT22;5446;50.826;4.380;2023-06-22T10:02:21;18.70;99.90
10788;DHT22;5446;50.826;4.380;2023-06-22T10:04:48;18.60;99.90
10788;DHT22;5446;50.826;4.380;2023-06-22T10:07:13;18.50;99.90
10788;DHT22;5446;50.826;4.380;2023-06-22T10:09:39;18.40;99.90
10788;DHT22;5446;50.826;4.380;2023-06-22T10:12:07;18.40;99.90
10788;DHT22;5446;50.826;4.380;2023-06-22T10:14:32;18.30;99.90
10788;DHT22;5446;50.826;4.380;2023-06-22T10:16:58;18.10;99.90
10788;DHT22;5446;50.826;4.380;2023-06-22T10:19:24;18.10;99.90
10788;DHT22;5446;50.826;4.380;2023-06-22T10:21:49;18.20;99.90
10788;DHT22;5446;50.826;4.380;2023-06-22T10:24:15;18.20;99.90
10788;DHT22;5446;50.826;4.380;2023-06-22T10:26:41;18.20;99.90
10788;DHT22;5446;50.826;4.380;2023-06-22T10:29:07;18.30;99.90
10788;DHT22;5446;50.826;4.380;2023-06-22T10:31:32;18.30;99.90
10788;DHT22;5446;50.826;4.380;2023-06-22T10:33:58;18.30;99.90
10788;DHT22;5446;50.826;4.380;2023-06-22T10:36:24;18.10;99.90
10788;DHT22;5446;50.826;4.380;2023-06-22T10:38:50;18.00;99.90
10788;DHT22;5446;50.826;4.380;2023-06-22T10:41:15;18.00;99.90
10788;DHT22;5446;50.826;4.380;2023-06-22T10:43:42;18.00;99.90
10788;DHT22;5446;50.826;4.380;2023-06-22T10:46:07;18.10;99.90
10788;DHT22;5446;50.826;4.380;2023-06-22T10:48:33;18.10;99.90
10788;DHT22;5446;50.826;4.380;2023-06-22T10:50:59;18.00;99.90
10788;DHT22;5446;50.826;4.380;2023-06-22T10:53:25;18.00;99.90
10788;DHT22;5446;50.826;4.380;2023-06-22T10:55:51;18.10;99.90
10788;DHT22;5446;50.826;4.380;2023-06-22T10:58:18;18.00;99.90
10788;DHT22;5446;50.826;4.380;2023-06-22T11:00:45;18.00;99.90
10788;DHT22;5446;50.826;4.380;2023-06-22T11:03:11;18.10;99.90
10788;DHT22;5446;50.826;4.380;2023-06-22T11:05:37;18.10;99.90
10788;DHT22;5446;50.826;4.380;2023-06-22T11:08:03;18.20;99.90
10788;DHT22;5446;50.826;4.380;2023-06-22T11:10:29;18.20;99.90
10788;DHT22;5446;50.826;4.380;2023-06-22T11:12:54;18.30;99.90
10788;DHT22;5446;50.826;4.380;2023-06-22T11:15:21;18.30;99.90
10788;DHT22;5446;50.826;4.380;2023-06-22T11:17:47;18.40;99.90
10788;DHT22;5446;50.826;4.380;2023-06-22T11:20:13;18.50;99.90
10788;DHT22;5446;50.826;4.380;2023-06-22T11:22:39;18.50;99.90
10788;DHT22;5446;50.826;4.380;2023-06-22T11:25:06;18.50;99.90
10788;DHT22;5446;50.826;4.380;2023-06-22T11:27:32;18.50;99.90
10788;DHT22;5446;50.826;4.380;2023-06-22T11:29:58;18.60;99.90
10788;DHT22;5446;50.826;4.380;2023-06-22T11:32:23;18.60;99.90
10788;DHT22;5446;50.826;4.380;2023-06-22T11:34:50;18.60;99.90
10788;DHT22;5446;50.826;4.380;2023-06-22T11:37:15;18.50;99.90
10788;DHT22;5446;50.826;4.380;2023-06-22T11:39:42;18.50;99.90
10788;DHT22;5446;50.826;4.380;2023-06-22T11:42:08;18.60;99.90
10788;DHT22;5446;50.826;4.380;2023-06-22T11:44:34;18.60;99.90
10788;DHT22;5446;50.826;4.380;2023-06-22T11:47:00;18.50;99.90
10788;DHT22;5446;50.826;4.380;2023-06-22T11:49:29;18.50;99.90
10788;DHT22;5446;50.826;4.380;2023-06-22T11:51:55;18.50;99.90
10788;DHT22;5446;50.826;4.380;2023-06-22T11:54:21;18.50;99.90
10788;DHT22;5446;50.826;4.380;2023-06-22T11:56:47;18.50;99.90
10788;DHT22;5446;50.826;4.380;2023-06-22T11:59:13;18.60;99.90
10788;DHT22;5446;50.826;4.380;2023-06-22T12:01:39;18.60;99.90
10788;DHT22;5446;50.826;4.380;2023-06-22T12:04:05;18.70;99.90
10788;DHT22;5446;50.826;4.380;2023-06-22T12:06:32;18.60;99.90
10788;DHT22;5446;50.826;4.380;2023-06-22T12:08:58;18.60;99.90
10788;DHT22;5446;50.826;4.380;2023-06-22T12:11:24;18.60;99.90
10788;DHT22;5446;50.826;4.380;2023-06-22T12:13:50;18.60;99.90
10788;DHT22;5446;50.826;4.380;2023-06-22T12:16:16;18.50;99.90
10788;DHT22;5446;50.826;4.380;2023-06-22T12:18:41;18.50;99.90
10788;DHT22;5446;50.826;4.380;2023-06-22T12:21:07;18.50;99.90
10788;DHT22;5446;50.826;4.380;2023-06-22T12:23:33;18.50;99.90
10788;DHT22;5446;50.826;4.380;2023-06-22T12:25:59;18.30;99.90
10788;DHT22;5446;50.826;4.380;2023-06-22T12:28:27;18.40;99.90
10788;DHT22;5446;50.826;4.380;2023-06-22T12:30:52;18.30;99.90
10788;DHT22;5446;50.826;4.380;2023-06-22T12:33:18;18.30;99.90
10788;DHT22;5446;50.826;4.380;2023-06-22T12:35:44;18.40;99.90
10788;DHT22;5446;50.826;4.380;2023-06-22T12:38:10;18.40;99.90
10788;DHT22;5446;50.826;4.380;2023-06-22T12:40:36;18.30;99.90
10788;DHT22;5446;50.826;4.380;2023-06-22T12:43:02;18.40;99.90
10788;DHT22;5446;50.826;4.380;2023-06-22T12:45:28;18.40;99.90
10788;DHT22;5446;50.826;4.380;2023-06-22T12:47:57;18.40;99.90
10788;DHT22;5446;50.826;4.380;2023-06-22T12:50:23;18.40;99.90
10788;DHT22;5446;50.826;4.380;2023-06-22T12:52:48;18.30;99.90
10788;DHT22;5446;50.826;4.380;2023-06-22T12:55:14;18.30;99.90
10788;DHT22;5446;50.826;4.380;2023-06-22T12:57:40;18.40;99.90
10788;DHT22;5446;50.826;4.380;2023-06-22T13:00:06;18.20;99.90
10788;DHT22;5446;50.826;4.380;2023-06-22T13:02:33;18.20;99.90
10788;DHT22;5446;50.826;4.380;2023-06-22T13:04:59;18.20;99.90
10788;DHT22;5446;50.826;4.380;2023-06-22T13:07:24;18.20;99.90
10788;DHT22;5446;50.826;4.380;2023-06-22T13:09:50;18.20;99.90
10788;DHT22;5446;50.826;4.380;2023-06-22T13:12:17;18.20;99.90
10788;DHT22;5446;50.826;4.380;2023-06-22T13:14:42;18.10;99.90
10788;DHT22;5446;50.826;4.380;2023-06-22T13:17:09;18.10;99.90
10788;DHT22;5446;50.826;4.380;2023-06-22T13:19:34;18.10;99.90
10788;DHT22;5446;50.826;4.380;2023-06-22T13:22:00;18.10;99.90
10788;DHT22;5446;50.826;4.380;2023-06-22T13:24:26;18.10;99.90
10788;DHT22;5446;50.826;4.380;2023-06-22T13:26:52;18.10;99.90
10788;DHT22;5446;50.826;4.380;2023-06-22T13:29:17;18.20;99.90
10788;DHT22;5446;50.826;4.380;2023-06-22T13:31:43;18.10;99.90
10788;DHT22;5446;50.826;4.380;2023-06-22T13:34:09;18.10;99.90
10788;DHT22;5446;50.826;4.380;2023-06-22T13:36:34;18.10;99.90
10788;DHT22;5446;50.826;4.380;2023-06-22T13:39:00;18.10;99.90
10788;DHT22;5446;50.826;4.380;2023-06-22T13:41:26;18.00;99.90
10788;DHT22;5446;50.826;4.380;2023-06-22T13:43:51;18.00;99.90
10788;DHT22;5446;50.826;4.380;2023-06-22T13:46:17;17.90;99.90
10788;DHT22;5446;50.826;4.380;2023-06-22T13:48:43;17.90;99.90
10788;DHT22;5446;50.826;4.380;2023-06-22T13:51:08;17.90;99.90
10788;DHT22;5446;50.826;4.380;2023-06-22T13:53:34;17.80;99.90
10788;DHT22;5446;50.826;4.380;2023-06-22T13:56:00;17.80;99.90
10788;DHT22;5446;50.826;4.380;2023-06-22T13:58:25;17.70;99.90
10788;DHT22;5446;50.826;4.380;2023-06-22T14:00:51;17.80;99.90
10788;DHT22;5446;50.826;4.380;2023-06-22T14:03:17;17.70;99.90
10788;DHT22;5446;50.826;4.380;2023-06-22T14:05:43;17.70;99.90
10788;DHT22;5446;50.826;4.380;2023-06-22T14:08:09;17.80;99.90
10788;DHT22;5446;50.826;4.380;2023-06-22T14:10:35;17.70;99.90
10788;DHT22;5446;50.826;4.380;2023-06-22T14:13:00;17.80;99.90
10788;DHT22;5446;50.826;4.380;2023-06-22T14:15:26;17.70;99.90
10788;DHT22;5446;50.826;4.380;2023-06-22T14:17:52;17.80;99.90
10788;DHT22;5446;50.826;4.380;2023-06-22T14:20:18;17.80;99.90
10788;DHT22;5446;50.826;4.380;2023-06-22T14:22:44;17.90;99.90
10788;DHT22;5446;50.826;4.380;2023-06-22T14:25:09;17.80;99.90
10788;DHT22;5446;50.826;4.380;2023-06-22T14:27:35;17.80;99.90
10788;DHT22;5446;50.826;4.380;2023-06-22T14:30:01;17.80;99.90
10788;DHT22;5446;50.826;4.380;2023-06-22T14:32:28;17.90;99.90
10788;DHT22;5446;50.826;4.380;2023-06-22T14:34:55;17.80;99.90
10788;DHT22;5446;50.826;4.380;2023-06-22T14:37:21;17.80;99.90
10788;DHT22;5446;50.826;4.380;2023-06-22T14:39:47;17.80;99.90
10788;DHT22;5446;50.826;4.380;2023-06-22T14:42:12;17.80;99.90
10788;DHT22;5446;50.826;4.380;2023-06-22T14:44:38;17.80;99.90
10788;DHT22;5446;50.826;4.380;2023-06-22T14:47:04;17.80;99.90
10788;DHT22;5446;50.826;4.380;2023-06-22T14:49:30;17.80;99.90
10788;DHT22;5446;50.826;4.380;2023-06-22T14:51:55;17.80;99.90
10788;DHT22;5446;50.826;4.380;2023-06-22T14:54:21;17.80;99.90
10788;DHT22;5446;50.826;4.380;2023-06-22T14:56:50;17.80;99.90
10788;DHT22;5446;50.826;4.380;2023-06-22T14:59:16;17.80;99.90
10788;DHT22;5446;50.826;4.380;2023-06-22T15:01:42;17.90;99.90
10788;DHT22;5446;50.826;4.380;2023-06-22T15:04:08;17.90;99.90
10788;DHT22;5446;50.826;4.380;2023-06-22T15:06:34;17.90;99.90
10788;DHT22;5446;50.826;4.380;2023-06-22T15:08:59;18.00;99.90
10788;DHT22;5446;50.826;4.380;2023-06-22T15:11:25;18.00;99.90
10788;DHT22;5446;50.826;4.380;2023-06-22T15:13:51;18.00;99.90
10788;DHT22;5446;50.826;4.380;2023-06-22T15:16:16;18.10;99.90
10788;DHT22;5446;50.826;4.380;2023-06-22T15:18:42;18.10;99.90
10788;DHT22;5446;50.826;4.380;2023-06-22T15:21:08;18.10;99.90
10788;DHT22;5446;50.826;4.380;2023-06-22T15:23:34;18.20;99.90
10788;DHT22;5446;50.826;4.380;2023-06-22T15:26:02;18.10;99.90
10788;DHT22;5446;50.826;4.380;2023-06-22T15:28:28;18.20;99.90
10788;DHT22;5446;50.826;4.380;2023-06-22T15:30:54;18.20;99.90
10788;DHT22;5446;50.826;4.380;2023-06-22T15:33:20;18.20;99.90
10788;DHT22;5446;50.826;4.380;2023-06-22T15:35:46;18.30;99.90
10788;DHT22;5446;50.826;4.380;2023-06-22T15:38:11;18.30;99.90
10788;DHT22;5446;50.826;4.380;2023-06-22T15:40:37;18.30;99.90
10788;DHT22;5446;50.826;4.380;2023-06-22T15:43:03;18.30;99.90
10788;DHT22;5446;50.826;4.380;2023-06-22T15:45:28;18.30;99.90
10788;DHT22;5446;50.826;4.380;2023-06-22T15:47:55;18.40;99.90
10788;DHT22;5446;50.826;4.380;2023-06-22T15:50:22;18.50;99.90
10788;DHT22;5446;50.826;4.380;2023-06-22T15:52:47;18.40;99.90